Time;durP1;ratioP1;P1;durP2;ratioP2;P2;SDS_P1;SDS_P2;PMS_P1;PMS_P2;Temp;Humidity;BMP_temperature;BMP_pressure;BME280_temperature;BME280_humidity;BME280_pressure;Samples;Min_cycle;Max_cycle;Signal;HPM_P1;HPM_P2
2022/10/23 00:02:24;;;;;;;8.20;3.80;;;;;12.10;100754.00;;;;10321039;28;20200;-79
2022/10/23 00:07:26;;;;;;;10.30;5.07;;;;;12.10;100755.00;;;;10314626;28;20220;-78
2022/10/23 00:12:28;;;;;;;10.07;4.37;;;;;12.00;100763.00;;;;10318205;28;20271;-78
2022/10/23 00:17:31;;;;;;;8.70;4.27;;;;;11.90;100747.00;;;;10320213;28;20224;-78
2022/10/23 00:22:33;;;;;;;8.53;3.90;;;;;11.90;100756.00;;;;10313453;28;20623;-78
2022/10/23 00:27:36;;;;;;;8.47;4.10;;;;;11.80;100760.00;;;;10322902;28;20722;-79
2022/10/23 00:32:38;;;;;;;13.20;4.20;;;;;11.80;100753.00;;;;10332727;28;20227;-79
2022/10/23 00:37:40;;;;;;;6.77;4.27;;;;;11.70;100735.00;;;;10323843;28;20228;-79
2022/10/23 00:42:42;;;;;;;10.03;4.50;;;;;11.70;100734.00;;;;10343121;28;20215;-78
2022/10/23 00:47:45;;;;;;;8.13;3.90;;;;;11.70;100731.00;;;;10329854;28;20232;-79
2022/10/23 00:52:50;;;;;;;8.17;4.60;;;;;11.70;100721.00;;;;10298445;28;20700;-78
2022/10/23 00:57:52;;;;;;;7.37;4.50;;;;;11.70;100708.00;;;;10326307;28;20204;-78
2022/10/23 01:02:56;;;;;;;11.60;4.43;;;;;11.70;100701.00;;;;10319221;28;20243;-79
2022/10/23 01:08:16;;;;;;;7.93;5.17;;;;;11.80;100709.00;;;;10315183;28;20742;-78
2022/10/23 01:13:30;;;;;;;10.80;5.93;;;;;11.90;100699.00;;;;10300372;28;20193;-78
2022/10/23 01:18:39;;;;;;;9.20;5.67;;;;;12.00;100690.00;;;;10340036;28;20228;-78
2022/10/23 01:24:03;;;;;;;8.90;5.17;;;;;12.10;100701.00;;;;10298573;28;20282;-78
2022/10/23 01:29:16;;;;;;;11.37;6.03;;;;;12.20;100693.00;;;;10336846;28;20207;-78
2022/10/23 01:34:24;;;;;;;11.07;5.73;;;;;12.30;100686.00;;;;10308660;28;20221;-79
2022/10/23 01:39:32;;;;;;;8.00;4.87;;;;;12.30;100693.00;;;;10323983;28;20185;-78
2022/10/23 01:44:40;;;;;;;6.40;4.77;;;;;12.30;100676.00;;;;10317282;28;20196;-78
2022/10/23 01:49:43;;;;;;;7.33;4.20;;;;;12.30;100664.00;;;;10325433;28;20188;-79
2022/10/23 01:54:48;;;;;;;4.87;3.33;;;;;12.30;100662.00;;;;10313107;28;20203;-79
2022/10/23 01:59:54;;;;;;;9.17;4.13;;;;;12.40;100658.00;;;;10286578;28;20268;-78
2022/10/23 02:05:23;;;;;;;12.57;3.60;;;;;12.40;100654.00;;;;10326831;28;20216;-79
2022/10/23 02:10:38;;;;;;;7.60;4.27;;;;;12.50;100653.00;;;;10291082;28;20259;-79
2022/10/23 02:15:45;;;;;;;8.93;3.50;;;;;12.60;100638.00;;;;10336279;28;20200;-79
2022/10/23 02:20:54;;;;;;;5.77;3.40;;;;;12.60;100631.00;;;;10284480;28;20224;-79
2022/10/23 02:26:20;;;;;;;9.40;3.13;;;;;12.60;100621.00;;;;10308705;28;20212;-77
2022/10/23 02:31:24;;;;;;;10.23;3.70;;;;;12.60;100611.00;;;;10268954;28;20196;-78
2022/10/23 02:36:27;;;;;;;3.97;2.57;;;;;12.70;100601.00;;;;10330692;28;20210;-78
2022/10/23 02:41:32;;;;;;;6.13;3.07;;;;;12.70;100601.00;;;;10308138;28;20210;-79
2022/10/23 02:46:48;;;;;;;3.63;2.70;;;;;12.80;100590.00;;;;10337082;28;20203;-79
2022/10/23 02:52:08;;;;;;;10.50;3.27;;;;;12.80;100592.00;;;;10293951;28;20195;-78
2022/10/23 02:57:37;;;;;;;7.57;3.03;;;;;12.90;100577.00;;;;10322453;28;20196;-79
2022/10/23 03:02:58;;;;;;;7.50;3.03;;;;;12.90;100575.00;;;;10325136;28;20581;-78
2022/10/23 03:08:04;;;;;;;6.87;2.63;;;;;12.80;100569.00;;;;10323982;28;20690;-79
2022/10/23 03:13:07;;;;;;;5.33;2.80;;;;;12.80;100558.00;;;;10323877;28;20185;-79
2022/10/23 03:18:15;;;;;;;4.60;2.80;;;;;12.70;100553.00;;;;10289360;28;20189;-77
2022/10/23 03:23:23;;;;;;;7.10;2.63;;;;;12.70;100552.00;;;;10289599;28;20262;-78
2022/10/23 03:28:25;;;;;;;6.33;2.83;;;;;12.80;100533.00;;;;10280987;28;20251;-77
2022/10/23 03:33:29;;;;;;;6.43;2.30;;;;;12.90;100533.00;;;;10324764;28;20192;-79
2022/10/23 03:38:39;;;;;;;5.63;2.30;;;;;13.00;100525.00;;;;10301613;28;20746;-79
2022/10/23 03:43:41;;;;;;;7.67;2.10;;;;;13.00;100515.00;;;;10303499;28;20286;-79
2022/10/23 03:48:43;;;;;;;9.00;2.70;;;;;13.10;100513.00;;;;10302915;28;20204;-78
2022/10/23 03:53:45;;;;;;;7.50;2.30;;;;;13.20;100499.00;;;;10270056;28;20611;-79
2022/10/23 03:58:49;;;;;;;4.10;2.43;;;;;13.20;100502.00;;;;10322388;28;20200;-78
2022/10/23 04:03:51;;;;;;;6.00;2.13;;;;;13.30;100502.00;;;;10323415;28;20215;-77
2022/10/23 04:08:54;;;;;;;3.83;2.60;;;;;13.30;100490.00;;;;10318288;28;20195;-78
2022/10/23 04:13:56;;;;;;;3.57;2.20;;;;;13.30;100497.00;;;;10273743;28;20193;-78
2022/10/23 04:18:58;;;;;;;7.10;2.27;;;;;13.40;100502.00;;;;10291148;28;20283;-79
2022/10/23 04:24:00;;;;;;;4.07;2.43;;;;;13.30;100496.00;;;;10286067;28;20223;-78
2022/10/23 04:29:02;;;;;;;5.03;2.23;;;;;13.30;100487.00;;;;10321266;28;20201;-78
2022/10/23 04:34:04;;;;;;;4.53;2.10;;;;;13.10;100487.00;;;;10311513;28;20859;-78
2022/10/23 04:39:11;;;;;;;4.73;2.30;;;;;13.00;100481.00;;;;10271880;28;20200;-78
2022/10/23 04:44:13;;;;;;;6.27;2.20;;;;;13.00;100480.00;;;;10318305;28;20211;-79
2022/10/23 04:49:15;;;;;;;6.53;2.70;;;;;13.00;100475.00;;;;10282556;28;20181;-78
2022/10/23 04:54:36;;;;;;;7.30;2.57;;;;;13.10;100469.00;;;;10279781;28;20250;-79
2022/10/23 05:00:07;;;;;;;5.40;2.10;;;;;13.10;100470.00;;;;10303433;28;20227;-77
2022/10/23 05:05:17;;;;;;;4.60;2.57;;;;;13.10;100455.00;;;;10345323;28;20223;-78
2022/10/23 05:10:26;;;;;;;5.30;2.40;;;;;13.20;100449.00;;;;10318827;28;20197;-79
2022/10/23 05:15:56;;;;;;;5.77;2.80;;;;;13.30;100447.00;;;;10315030;28;20212;-79
2022/10/23 05:21:04;;;;;;;6.57;2.50;;;;;13.30;100457.00;;;;10321861;28;20267;-78
2022/10/23 05:26:06;;;;;;;4.43;2.10;;;;;13.30;100438.00;;;;10302055;28;20200;-79
2022/10/23 05:31:11;;;;;;;2.50;2.27;;;;;13.30;100431.00;;;;10292138;28;20199;-78
2022/10/23 05:36:15;;;;;;;5.80;2.70;;;;;13.30;100433.00;;;;10303646;28;20192;-79
2022/10/23 05:41:18;;;;;;;4.10;2.63;;;;;13.40;100431.00;;;;10343659;28;20201;-78
2022/10/23 05:46:22;;;;;;;6.47;2.40;;;;;13.60;100416.00;;;;10322732;28;20777;-79
2022/10/23 05:51:40;;;;;;;4.67;2.50;;;;;13.70;100403.00;;;;10295928;28;20666;-79
2022/10/23 05:57:03;;;;;;;3.50;2.83;;;;;13.70;100400.00;;;;10305068;28;20196;-78
2022/10/23 06:02:07;;;;;;;6.80;3.23;;;;;13.70;100388.00;;;;10293715;28;20228;-79
2022/10/23 06:07:25;;;;;;;6.13;2.83;;;;;13.60;100396.00;;;;10321839;28;20227;-78
2022/10/23 06:12:33;;;;;;;4.23;2.90;;;;;13.60;100390.00;;;;10299223;28;20196;-78
2022/10/23 06:17:35;;;;;;;3.57;2.40;;;;;13.50;100390.00;;;;10323567;28;20216;-79
2022/10/23 06:22:38;;;;;;;5.53;2.30;;;;;13.50;100377.00;;;;10309445;28;20208;-79
2022/10/23 06:27:55;;;;;;;5.13;2.47;;;;;13.50;100373.00;;;;10311000;28;20197;-79
2022/10/23 06:32:58;;;;;;;7.80;3.00;;;;;13.50;100368.00;;;;10318118;28;20193;-79
2022/10/23 06:38:07;;;;;;;3.33;2.47;;;;;13.60;100358.00;;;;10308461;28;20565;-79
2022/10/23 06:43:15;;;;;;;5.67;2.30;;;;;13.70;100354.00;;;;10345967;28;20211;-78
2022/10/23 06:48:52;;;;;;;4.77;2.30;;;;;13.70;100358.00;;;;10275199;28;20232;-79
2022/10/23 06:53:59;;;;;;;5.13;2.40;;;;;13.70;100368.00;;;;10320196;28;20191;-79
2022/10/23 06:59:27;;;;;;;3.40;2.20;;;;;13.80;100356.00;;;;10287532;28;20271;-78
2022/10/23 07:04:29;;;;;;;5.80;2.83;;;;;14.00;100361.00;;;;10339101;28;20223;-79
2022/10/23 07:09:34;;;;;;;4.47;2.63;;;;;14.10;100369.00;;;;10290053;28;20200;-79
2022/10/23 07:14:52;;;;;;;4.97;2.47;;;;;14.20;100364.00;;;;10302627;28;20200;-80
2022/10/23 07:19:55;;;;;;;5.93;2.10;;;;;14.30;100364.00;;;;10321929;28;20243;-79
2022/10/23 07:24:57;;;;;;;4.37;2.70;;;;;14.40;100350.00;;;;10290384;28;20200;-79
2022/10/23 07:30:06;;;;;;;4.25;3.47;;;;;14.60;100345.00;;;;10307245;28;20209;-79
2022/10/23 07:35:18;;;;;;;7.03;2.60;;;;;14.70;100342.00;;;;10279649;28;20271;-79
2022/10/23 07:40:27;;;;;;;11.77;3.40;;;;;14.80;100335.00;;;;10278811;28;20196;-79
2022/10/23 07:45:30;;;;;;;3.45;2.40;;;;;14.90;100351.00;;;;10289390;28;20212;-79
2022/10/23 07:50:39;;;;;;;3.07;2.23;;;;;15.00;100342.00;;;;10330911;28;20259;-79
2022/10/23 07:55:41;;;;;;;4.07;2.65;;;;;15.10;100336.00;;;;10297969;28;20203;-80
2022/10/23 08:00:54;;;;;;;3.30;1.90;;;;;15.30;100321.00;;;;10322774;28;20722;-78
2022/10/23 08:06:03;;;;;;;2.70;1.80;;;;;15.40;100318.00;;;;10274039;28;20219;-79
2022/10/23 08:11:05;;;;;;;4.85;2.33;;;;;15.40;100315.00;;;;10309436;28;20247;-79
2022/10/23 08:16:20;;;;;;;2.55;2.15;;;;;15.50;100311.00;;;;10326824;28;20197;-79
2022/10/23 08:21:38;;;;;;;5.30;2.20;;;;;15.70;100312.00;;;;10338616;28;20645;-78
2022/10/23 08:26:41;;;;;;;5.70;2.30;;;;;15.80;100302.00;;;;10302738;28;20188;-79
2022/10/23 08:31:44;;;;;;;6.57;2.35;;;;;15.80;100289.00;;;;10313993;28;20188;-79
2022/10/23 08:36:59;;;;;;;3.00;2.35;;;;;15.90;100288.00;;;;10302234;28;20245;-79
2022/10/23 08:42:02;;;;;;;4.88;1.95;;;;;16.00;100282.00;;;;10307784;28;20274;-79
2022/10/23 08:47:18;;;;;;;4.00;2.10;;;;;16.10;100270.00;;;;10292409;28;20216;-79
2022/10/23 08:52:51;;;;;;;3.97;2.00;;;;;16.20;100256.00;;;;10283293;28;20215;-78
2022/10/23 08:58:02;;;;;;;4.20;2.53;;;;;16.30;100234.00;;;;10311303;28;20699;-78
2022/10/23 09:03:04;;;;;;;3.85;1.92;;;;;16.20;100243.00;;;;10319676;28;20204;-78
2022/10/23 09:09:03;;;;;;;8.05;2.42;;;;;16.40;100226.00;;;;10313237;28;20220;-78
2022/10/23 09:14:38;;;;;;;3.70;2.10;;;;;16.40;100223.00;;;;10218020;28;20201;-78
2022/10/23 09:19:40;;;;;;;3.70;2.50;;;;;16.30;100228.00;;;;10281838;28;20582;-78
2022/10/23 09:24:43;;;;;;;3.08;2.35;;;;;16.30;100221.00;;;;10289895;28;20212;-78
2022/10/23 09:29:50;;;;;;;6.38;2.13;;;;;16.50;100194.00;;;;10295094;28;20207;-78
2022/10/23 09:34:54;;;;;;;5.57;2.72;;;;;16.80;100206.00;;;;10295803;28;20196;-78
2022/10/23 09:40:14;;;;;;;4.38;2.15;;;;;17.10;100220.00;;;;10325658;28;20195;-75
2022/10/23 09:45:32;;;;;;;4.78;3.28;;;;;17.40;100191.00;;;;10302947;28;20686;-78
2022/10/23 09:50:47;;;;;;;8.07;2.88;;;;;17.70;100193.00;;;;10303804;28;20275;-79
2022/10/23 09:55:55;;;;;;;4.78;2.50;;;;;18.00;100196.00;;;;10332381;28;20220;-79
2022/10/23 10:00:57;;;;;;;4.68;2.08;;;;;18.30;100204.00;;;;10322151;28;20247;-79
2022/10/23 10:06:28;;;;;;;6.78;2.33;;;;;18.60;100203.00;;;;10266247;28;20216;-79
2022/10/23 10:11:48;;;;;;;3.60;2.55;;;;;18.80;100198.00;;;;10281647;28;20654;-78
2022/10/23 10:16:52;;;;;;;5.07;2.40;;;;;19.00;100204.00;;;;10290964;28;20200;-79
2022/10/23 10:22:18;;;;;;;6.45;2.45;;;;;19.20;100210.00;;;;10303435;28;20306;-78
2022/10/23 10:27:59;;;;;;;5.07;2.45;;;;;19.50;100212.00;;;;10309005;28;20199;-78
2022/10/23 10:33:11;;;;;;;4.65;2.60;;;;;19.70;100199.00;;;;10281943;28;20184;-78
2022/10/23 10:38:42;;;;;;;6.18;1.80;;;;;19.80;100187.00;;;;10302740;28;20237;-79
2022/10/23 10:44:09;;;;;;;4.97;2.90;;;;;19.90;100175.00;;;;10283471;28;20599;-78
2022/10/23 10:49:23;;;;;;;6.20;2.40;;;;;20.00;100178.00;;;;10323320;28;20447;-78
2022/10/23 10:54:54;;;;;;;3.92;2.25;;;;;20.10;100166.00;;;;10270135;28;20206;-79
2022/10/23 11:00:01;;;;;;;7.57;2.55;;;;;20.20;100156.00;;;;10336584;28;20628;-78
2022/10/23 11:05:13;;;;;;;5.18;2.30;;;;;20.30;100153.00;;;;10307466;28;20248;-76
2022/10/23 11:10:17;;;;;;;4.80;2.40;;;;;20.30;100149.00;;;;10275929;28;20200;-75
2022/10/23 11:15:26;;;;;;;5.13;1.85;;;;;20.20;100128.00;;;;10275369;28;20193;-76
2022/10/23 11:20:40;;;;;;;3.28;2.03;;;;;20.20;100124.00;;;;10290183;28;20179;-76
2022/10/23 11:26:19;;;;;;;7.57;2.28;;;;;20.30;100122.00;;;;10324923;28;20675;-77
2022/10/23 11:31:53;;;;;;;6.18;2.30;;;;;20.60;100123.00;;;;10319058;28;20196;-77
2022/10/23 11:36:58;;;;;;;3.28;1.90;;;;;20.80;100109.00;;;;10322393;28;20188;-77
2022/10/23 11:42:02;;;;;;;4.43;2.42;;;;;21.00;100103.00;;;;10282147;28;20266;-77
2022/10/23 11:47:24;;;;;;;7.10;2.00;;;;;21.20;100096.00;;;;10303187;28;20196;-77
2022/10/23 11:52:26;;;;;;;5.47;2.00;;;;;21.30;100093.00;;;;10299291;28;20208;-76
2022/10/23 11:57:28;;;;;;;3.97;2.45;;;;;21.50;100090.00;;;;10279018;28;20200;-77
2022/10/23 12:02:37;;;;;;;6.25;2.83;;;;;21.70;100095.00;;;;10308296;28;20295;-77
2022/10/23 12:07:40;;;;;;;3.72;2.15;;;;;21.80;100083.00;;;;10313648;28;20204;-78
2022/10/23 12:12:58;;;;;;;4.13;2.42;;;;;21.90;100085.00;;;;10307821;28;20200;-77
2022/10/23 12:18:16;;;;;;;6.20;2.30;;;;;21.80;100066.00;;;;10330091;28;20190;-76
2022/10/23 12:23:43;;;;;;;3.65;1.95;;;;;21.70;100052.00;;;;10324134;28;20200;-78
2022/10/23 12:29:09;;;;;;;9.07;3.03;;;;;21.80;100046.00;;;;10295520;28;20618;-77
2022/10/23 12:34:37;;;;;;;4.45;1.90;;;;;21.90;100036.00;;;;10318302;28;20197;-77
2022/10/23 12:39:39;;;;;;;4.88;2.25;;;;;21.90;100013.00;;;;10295080;28;20527;-77
2022/10/23 12:44:41;;;;;;;3.42;2.38;;;;;22.00;100007.00;;;;10330720;28;20369;-77
2022/10/23 12:49:48;;;;;;;3.83;2.17;;;;;22.30;99999.00;;;;10264580;28;20675;-78
2022/10/23 12:54:51;;;;;;;6.85;2.58;;;;;22.60;99983.00;;;;10265994;28;20215;-77
2022/10/23 13:00:01;;;;;;;5.80;2.10;;;;;22.60;99987.00;;;;10317456;28;20540;-77
2022/10/23 13:05:06;;;;;;;3.90;1.83;;;;;22.80;99992.00;;;;10295267;28;20247;-77
2022/10/23 13:10:18;;;;;;;7.00;2.20;;;;;22.70;99993.00;;;;10308615;28;20250;-77
2022/10/23 13:15:42;;;;;;;5.40;2.13;;;;;22.70;99999.00;;;;10315241;28;20193;-77
2022/10/23 13:20:53;;;;;;;3.17;1.58;;;;;22.60;100002.00;;;;10313824;28;20295;-77
2022/10/23 13:26:04;;;;;;;6.88;2.58;;;;;22.30;99989.00;;;;10312957;28;20288;-77
2022/10/23 13:31:09;;;;;;;2.67;1.83;;;;;22.20;99981.00;;;;10328938;28;20201;-77
2022/10/23 13:36:13;;;;;;;4.00;2.28;;;;;22.00;99969.00;;;;10314112;28;20192;-77
2022/10/23 13:41:18;;;;;;;3.25;2.00;;;;;21.90;99963.00;;;;10306108;28;20193;-78
2022/10/23 13:46:24;;;;;;;4.53;1.88;;;;;21.70;99963.00;;;;10316623;28;20560;-78
2022/10/23 13:51:38;;;;;;;7.30;2.20;;;;;21.60;99958.00;;;;10319017;28;20208;-77
2022/10/23 13:56:43;;;;;;;4.03;1.98;;;;;21.50;99961.00;;;;10286363;28;20206;-77
2022/10/23 14:01:48;;;;;;;4.32;1.88;;;;;21.50;99959.00;;;;10306094;28;20188;-77
2022/10/23 14:06:53;;;;;;;3.50;1.85;;;;;21.50;99947.00;;;;10305173;28;20243;-77
2022/10/23 14:11:55;;;;;;;7.53;2.10;;;;;21.40;99944.00;;;;10293337;28;20200;-77
2022/10/23 14:16:57;;;;;;;5.65;2.47;;;;;21.30;99951.00;;;;10329524;28;20184;-77
2022/10/23 14:21:59;;;;;;;3.90;2.00;;;;;21.30;99941.00;;;;10325504;28;20200;-78
2022/10/23 14:27:01;;;;;;;3.67;2.22;;;;;21.10;99937.00;;;;10291048;28;20204;-76
2022/10/23 14:32:03;;;;;;;6.75;2.20;;;;;20.90;99931.00;;;;10300919;28;20226;-77
2022/10/23 14:37:05;;;;;;;3.70;2.28;;;;;20.80;99932.00;;;;10310890;28;20254;-77
2022/10/23 14:42:10;;;;;;;4.63;2.42;;;;;20.80;99924.00;;;;10313808;28;20203;-76
2022/10/23 14:47:12;;;;;;;3.15;2.22;;;;;20.70;99912.00;;;;10298405;28;20292;-77
2022/10/23 14:52:14;;;;;;;5.32;2.53;;;;;20.60;99899.00;;;;10302872;28;20204;-77
2022/10/23 14:57:18;;;;;;;9.10;5.68;;;;;20.30;99881.00;;;;10308558;28;20244;-76
2022/10/23 15:02:20;;;;;;;7.68;3.17;;;;;20.20;99877.00;;;;10314811;28;20570;-78
2022/10/23 15:07:22;;;;;;;7.65;2.47;;;;;20.10;99866.00;;;;10276428;28;20269;-77
2022/10/23 15:12:23;;;;;;;10.00;2.38;;;;;19.90;99856.00;;;;10302574;28;20208;-77
2022/10/23 15:17:25;;;;;;;5.03;2.85;;;;;19.80;99840.00;;;;10293882;28;20226;-76
2022/10/23 15:22:28;;;;;;;6.40;2.60;;;;;19.80;99827.00;;;;10286658;28;20263;-77
2022/10/23 15:27:29;;;;;;;8.30;2.97;;;;;19.80;99821.00;;;;10331856;28;20223;-77
2022/10/23 15:32:31;;;;;;;10.32;2.60;;;;;19.70;99820.00;;;;10318748;28;20222;-77
2022/10/23 15:37:33;;;;;;;3.33;2.03;;;;;19.70;99842.00;;;;10306593;28;20200;-77
2022/10/23 15:42:35;;;;;;;4.60;2.50;;;;;19.60;99832.00;;;;10336696;28;20907;-77
2022/10/23 15:47:37;;;;;;;5.78;2.60;;;;;19.60;99824.00;;;;10311568;28;20196;-77
2022/10/23 15:52:39;;;;;;;8.07;2.78;;;;;19.60;99792.00;;;;10306755;28;20196;-77
2022/10/23 15:57:41;;;;;;;6.88;3.25;;;;;19.70;99791.00;;;;10308244;28;20215;-76
2022/10/23 16:02:43;;;;;;;5.57;2.63;;;;;19.60;99777.00;;;;10313875;28;20776;-77
2022/10/23 16:07:45;;;;;;;7.25;3.75;;;;;19.50;99777.00;;;;10293806;28;20251;-77
2022/10/23 16:12:47;;;;;;;4.13;2.40;;;;;19.40;99770.00;;;;10318276;28;20200;-78
2022/10/23 16:17:49;;;;;;;7.97;2.63;;;;;19.10;99768.00;;;;10321307;28;20200;-77
2022/10/23 16:22:50;;;;;;;4.30;2.90;;;;;18.80;99758.00;;;;10292085;28;20216;-77
2022/10/23 16:27:52;;;;;;;9.40;3.35;;;;;18.60;99742.00;;;;10329603;28;20567;-77
2022/10/23 16:32:54;;;;;;;6.25;2.72;;;;;18.50;99745.00;;;;10335160;28;20192;-77
2022/10/23 16:37:56;;;;;;;5.43;2.55;;;;;18.50;99739.00;;;;10290261;28;20199;-77
2022/10/23 16:42:58;;;;;;;5.30;2.65;;;;;18.40;99739.00;;;;10316146;28;20205;-77
2022/10/23 16:48:07;;;;;;;5.82;2.92;;;;;18.30;99747.00;;;;10283708;28;20200;-78
2022/10/23 16:53:09;;;;;;;7.90;4.10;;;;;18.30;99734.00;;;;10324591;28;20228;-77
2022/10/23 16:58:11;;;;;;;9.30;2.90;;;;;18.20;99755.00;;;;10302095;28;20205;-77
2022/10/23 17:03:12;;;;;;;4.20;2.55;;;;;18.10;99751.00;;;;10297365;28;20220;-77
2022/10/23 17:08:14;;;;;;;9.98;3.15;;;;;18.10;99727.00;;;;10323951;28;20700;-77
2022/10/23 17:13:16;;;;;;;5.70;2.20;;;;;18.20;99732.00;;;;10316249;28;20200;-78
2022/10/23 17:18:18;;;;;;;4.40;2.67;;;;;18.10;99727.00;;;;10306752;28;20193;-77
2022/10/23 17:23:21;;;;;;;4.85;3.40;;;;;18.10;99738.00;;;;10302613;28;20189;-78
2022/10/23 17:28:23;;;;;;;6.65;2.90;;;;;18.00;99751.00;;;;10313190;28;20275;-77
2022/10/23 17:33:24;;;;;;;5.90;2.78;;;;;18.00;99733.00;;;;10309328;28;20180;-77
2022/10/23 17:38:26;;;;;;;4.18;3.13;;;;;18.10;99735.00;;;;10341782;28;20263;-78
2022/10/23 17:43:28;;;;;;;4.60;2.33;;;;;18.10;99759.00;;;;10301265;28;20204;-77
2022/10/23 17:48:30;;;;;;;4.03;2.55;;;;;18.10;99761.00;;;;10307612;28;20204;-78
2022/10/23 17:53:35;;;;;;;4.28;2.10;;;;;18.20;99761.00;;;;10328494;28;20259;-78
2022/10/23 17:58:37;;;;;;;6.75;2.15;;;;;18.20;99762.00;;;;10319228;28;20188;-78
2022/10/23 18:03:39;;;;;;;8.45;2.10;;;;;18.20;99760.00;;;;10308170;28;21709;-78
2022/10/23 18:08:42;;;;;;;8.13;2.08;;;;;18.10;99767.00;;;;10285852;28;20201;-77
2022/10/23 18:13:45;;;;;;;7.60;3.10;;;;;18.20;99768.00;;;;10307286;28;20191;-78
2022/10/23 18:18:47;;;;;;;8.43;2.38;;;;;18.30;99936.00;;;;10331919;28;20311;-78
2022/10/23 18:23:50;;;;;;;12.40;2.58;;;;;17.10;99959.00;;;;10323508;28;20232;-78
2022/10/23 18:28:56;;;;;;;6.15;1.45;;;;;16.00;99895.00;;;;10295840;28;20670;-76
2022/10/23 18:34:02;;;;;;;2.78;1.27;;;;;15.70;99868.00;;;;10275487;28;20587;-76
2022/10/23 18:39:05;;;;;;;2.60;1.38;;;;;15.60;99890.00;;;;10310435;28;20199;-76
2022/10/23 18:44:08;;;;;;;5.80;1.73;;;;;15.60;99869.00;;;;10298119;28;20207;-76
2022/10/23 18:49:10;;;;;;;5.38;1.98;;;;;15.60;99871.00;;;;10333292;28;20202;-76
2022/10/23 18:54:14;;;;;;;5.15;2.38;;;;;15.60;99866.00;;;;10292027;28;20196;-76
2022/10/23 18:59:18;;;;;;;5.28;1.75;;;;;15.50;99873.00;;;;10299195;28;20197;-77
2022/10/23 19:04:20;;;;;;;2.55;1.48;;;;;15.40;99880.00;;;;10320555;28;20270;-77
2022/10/23 19:09:22;;;;;;;5.03;1.60;;;;;15.40;99885.00;;;;10312687;28;20204;-76
2022/10/23 19:14:26;;;;;;;4.28;1.60;;;;;15.30;99876.00;;;;10279712;28;20196;-76
2022/10/23 19:19:38;;;;;;;5.43;1.88;;;;;15.30;99881.00;;;;10307225;28;20200;-76
2022/10/23 19:24:45;;;;;;;7.05;1.75;;;;;15.30;99890.00;;;;10303533;28;20581;-76
2022/10/23 19:29:49;;;;;;;3.78;1.70;;;;;15.30;99883.00;;;;10292524;28;20202;-77
2022/10/23 19:34:51;;;;;;;4.40;1.60;;;;;15.10;99879.00;;;;10311666;28;20189;-77
2022/10/23 19:39:52;;;;;;;6.35;2.10;;;;;14.90;99880.00;;;;10326799;28;20235;-77
2022/10/23 19:44:54;;;;;;;4.07;1.75;;;;;14.90;99898.00;;;;10294384;28;20222;-77
2022/10/23 19:49:56;;;;;;;4.63;2.03;;;;;14.90;99893.00;;;;10309312;28;20197;-77
2022/10/23 19:54:58;;;;;;;6.70;2.03;;;;;14.80;99893.00;;;;10291628;28;20208;-77
2022/10/23 20:00:00;;;;;;;2.72;1.98;;;;;14.70;99900.00;;;;10316810;28;20190;-77
2022/10/23 20:05:10;;;;;;;5.93;1.90;;;;;14.50;99899.00;;;;10295959;28;20231;-77
2022/10/23 20:10:13;;;;;;;4.40;2.00;;;;;14.50;99903.00;;;;10308445;28;20199;-77
2022/10/23 20:15:15;;;;;;;5.72;3.50;;;;;14.40;99895.00;;;;10333731;28;20192;-77
2022/10/23 20:20:19;;;;;;;6.43;3.65;;;;;14.30;99893.00;;;;10287575;28;20188;-77
2022/10/23 20:25:20;;;;;;;8.90;4.47;;;;;14.20;99886.00;;;;10324158;28;20211;-77
2022/10/23 20:30:22;;;;;;;12.18;3.88;;;;;14.10;99895.00;;;;10307065;28;20928;-77
2022/10/23 20:35:24;;;;;;;4.53;3.50;;;;;14.10;99904.00;;;;10302264;28;20216;-77
2022/10/23 20:40:26;;;;;;;7.53;3.20;;;;;14.30;99898.00;;;;10304143;28;20246;-77
2022/10/23 20:45:28;;;;;;;7.80;3.40;;;;;14.50;99891.00;;;;10288855;28;20710;-77
2022/10/23 20:50:30;;;;;;;6.78;3.70;;;;;14.70;99888.00;;;;10305097;28;20192;-77
2022/10/23 20:55:32;;;;;;;9.57;3.53;;;;;14.80;99885.00;;;;10305649;28;20239;-77
2022/10/23 21:00:34;;;;;;;7.68;4.60;;;;;14.90;99893.00;;;;10314096;28;20201;-77
2022/10/23 21:05:36;;;;;;;6.00;3.60;;;;;15.00;99887.00;;;;10296169;28;20212;-77
2022/10/23 21:10:44;;;;;;;10.40;3.22;;;;;15.10;99897.00;;;;10318866;28;20200;-77
2022/10/23 21:15:46;;;;;;;7.22;3.78;;;;;15.10;99903.00;;;;10308918;28;20221;-77
2022/10/23 21:20:48;;;;;;;8.43;3.75;;;;;15.10;99895.00;;;;10338024;28;20216;-77
2022/10/23 21:25:50;;;;;;;7.93;3.22;;;;;15.20;99902.00;;;;10317752;28;20299;-77
2022/10/23 21:30:52;;;;;;;5.53;2.58;;;;;15.20;99896.00;;;;10302372;28;20238;-77
2022/10/23 21:35:54;;;;;;;6.68;2.78;;;;;15.20;99886.00;;;;10300124;28;20695;-77
2022/10/23 21:41:14;;;;;;;7.18;2.92;;;;;15.20;99902.00;;;;10304304;28;20192;-77
2022/10/23 21:46:17;;;;;;;8.80;3.22;;;;;15.20;99895.00;;;;10288685;28;20746;-77
2022/10/23 21:51:28;;;;;;;9.18;2.88;;;;;15.20;99886.00;;;;10311859;28;20326;-77
2022/10/23 21:56:39;;;;;;;6.05;2.97;;;;;15.10;99881.00;;;;10321514;28;20249;-77
2022/10/23 22:01:43;;;;;;;9.73;3.03;;;;;15.10;99876.00;;;;10308677;28;20199;-77
2022/10/23 22:06:48;;;;;;;8.55;2.75;;;;;15.10;99869.00;;;;10284447;28;20219;-76
2022/10/23 22:11:52;;;;;;;5.80;2.72;;;;;15.10;99869.00;;;;10326103;28;20254;-77
2022/10/23 22:16:53;;;;;;;5.57;2.50;;;;;15.10;99857.00;;;;10286383;28;20185;-77
2022/10/23 22:21:56;;;;;;;10.02;3.20;;;;;15.00;99859.00;;;;10321504;28;20192;-78
2022/10/23 22:26:58;;;;;;;7.45;2.90;;;;;15.00;99840.00;;;;10303692;28;20258;-78
2022/10/23 22:31:59;;;;;;;8.15;2.60;;;;;15.00;99837.00;;;;10277180;28;20208;-78
2022/10/23 22:37:01;;;;;;;6.05;2.80;;;;;15.00;99845.00;;;;10306515;28;20639;-77
2022/10/23 22:42:03;;;;;;;4.07;1.95;;;;;15.10;99832.00;;;;10290369;28;20578;-77
2022/10/23 22:47:05;;;;;;;5.28;2.35;;;;;15.10;99828.00;;;;10300602;28;20211;-77
2022/10/23 22:52:07;;;;;;;7.68;2.10;;;;;15.10;99830.00;;;;10273632;28;20659;-77
2022/10/23 22:57:09;;;;;;;5.15;1.88;;;;;15.10;99813.00;;;;10319462;28;20200;-77
2022/10/23 23:02:11;;;;;;;7.45;1.90;;;;;15.20;99823.00;;;;10315160;28;20638;-78
2022/10/23 23:07:13;;;;;;;4.32;1.60;;;;;15.20;99808.00;;;;10332642;28;20217;-78
2022/10/23 23:12:14;;;;;;;6.10;1.60;;;;;15.30;99804.00;;;;10326635;28;20274;-77
2022/10/23 23:17:16;;;;;;;5.35;1.40;;;;;15.30;99804.00;;;;10328930;28;20271;-78
2022/10/23 23:22:18;;;;;;;6.25;1.60;;;;;15.40;99791.00;;;;10318724;28;20193;-77
2022/10/23 23:27:20;;;;;;;4.60;1.50;;;;;15.40;99789.00;;;;10290069;28;20268;-77
2022/10/23 23:32:23;;;;;;;3.97;1.48;;;;;15.30;99803.00;;;;10302842;28;20188;-78
2022/10/23 23:37:25;;;;;;;3.78;1.52;;;;;15.40;99805.00;;;;10316868;28;20206;-78
2022/10/23 23:42:26;;;;;;;4.20;1.63;;;;;15.50;99804.00;;;;10301496;28;20198;-78
2022/10/23 23:47:28;;;;;;;6.53;2.22;;;;;15.60;99807.00;;;;10310950;28;20756;-78
2022/10/23 23:52:30;;;;;;;4.15;2.25;;;;;15.50;99811.00;;;;10312514;28;20207;-78
2022/10/23 23:57:32;;;;;;;7.00;1.90;;;;;15.40;99805.00;;;;10299337;28;20220;-78
